sensor_id;sensor_type;location;lat;lon;timestamp;P1;durP1;ratioP1;P2;durP2;ratioP2
6121;SDS011;3091;51.506;7.672;2023-04-19T00:02:09;21.03;;;20.20;;
6121;SDS011;3091;51.506;7.672;2023-04-19T00:04:35;21.83;;;20.43;;
6121;SDS011;3091;51.506;7.672;2023-04-19T00:07:02;23.53;;;22.23;;
6121;SDS011;3091;51.506;7.672;2023-04-19T00:09:28;20.80;;;19.73;;
6121;SDS011;3091;51.506;7.672;2023-04-19T00:11:54;19.37;;;18.57;;
6121;SDS011;3091;51.506;7.672;2023-04-19T00:14:20;23.80;;;22.60;;
6121;SDS011;3091;51.506;7.672;2023-04-19T00:16:46;21.50;;;20.60;;
6121;SDS011;3091;51.506;7.672;2023-04-19T00:19:12;19.57;;;18.87;;
6121;SDS011;3091;51.506;7.672;2023-04-19T00:21:38;21.83;;;20.73;;
6121;SDS011;3091;51.506;7.672;2023-04-19T00:24:04;19.57;;;18.67;;
6121;SDS011;3091;51.506;7.672;2023-04-19T00:26:30;19.87;;;18.97;;
6121;SDS011;3091;51.506;7.672;2023-04-19T00:28:56;20.40;;;19.57;;
6121;SDS011;3091;51.506;7.672;2023-04-19T00:31:22;19.17;;;18.37;;
6121;SDS011;3091;51.506;7.672;2023-04-19T00:33:48;20.23;;;19.30;;
6121;SDS011;3091;51.506;7.672;2023-04-19T00:36:14;22.77;;;21.57;;
6121;SDS011;3091;51.506;7.672;2023-04-19T00:38:40;21.73;;;20.63;;
6121;SDS011;3091;51.506;7.672;2023-04-19T00:41:06;20.70;;;19.80;;
6121;SDS011;3091;51.506;7.672;2023-04-19T00:43:32;20.30;;;19.40;;
6121;SDS011;3091;51.506;7.672;2023-04-19T00:45:59;22.57;;;21.37;;
6121;SDS011;3091;51.506;7.672;2023-04-19T00:48:25;19.03;;;18.23;;
6121;SDS011;3091;51.506;7.672;2023-04-19T00:50:51;19.80;;;18.90;;
6121;SDS011;3091;51.506;7.672;2023-04-19T00:53:17;20.40;;;19.50;;
6121;SDS011;3091;51.506;7.672;2023-04-19T00:55:43;19.87;;;18.97;;
6121;SDS011;3091;51.506;7.672;2023-04-19T00:58:09;20.50;;;19.60;;
6121;SDS011;3091;51.506;7.672;2023-04-19T01:00:35;21.30;;;20.50;;
6121;SDS011;3091;51.506;7.672;2023-04-19T01:03:01;20.97;;;20.17;;
6121;SDS011;3091;51.506;7.672;2023-04-19T01:05:28;23.33;;;22.33;;
6121;SDS011;3091;51.506;7.672;2023-04-19T01:07:57;21.30;;;20.40;;
6121;SDS011;3091;51.506;7.672;2023-04-19T01:10:23;22.70;;;21.80;;
6121;SDS011;3091;51.506;7.672;2023-04-19T01:12:49;21.53;;;20.60;;
6121;SDS011;3091;51.506;7.672;2023-04-19T01:15:15;20.00;;;19.20;;
6121;SDS011;3091;51.506;7.672;2023-04-19T01:17:41;20.13;;;19.33;;
6121;SDS011;3091;51.506;7.672;2023-04-19T01:20:07;22.20;;;21.20;;
6121;SDS011;3091;51.506;7.672;2023-04-19T01:22:36;20.20;;;19.40;;
6121;SDS011;3091;51.506;7.672;2023-04-19T01:25:02;21.00;;;20.10;;
6121;SDS011;3091;51.506;7.672;2023-04-19T01:27:29;19.23;;;18.53;;
6121;SDS011;3091;51.506;7.672;2023-04-19T01:29:55;18.60;;;17.90;;
6121;SDS011;3091;51.506;7.672;2023-04-19T01:32:21;17.87;;;17.27;;
6121;SDS011;3091;51.506;7.672;2023-04-19T01:34:47;19.17;;;18.47;;
6121;SDS011;3091;51.506;7.672;2023-04-19T01:37:13;18.93;;;18.13;;
6121;SDS011;3091;51.506;7.672;2023-04-19T01:39:39;18.43;;;17.63;;
6121;SDS011;3091;51.506;7.672;2023-04-19T01:42:05;18.63;;;17.40;;
6121;SDS011;3091;51.506;7.672;2023-04-19T01:44:31;17.50;;;16.77;;
6121;SDS011;3091;51.506;7.672;2023-04-19T01:46:57;17.47;;;16.77;;
6121;SDS011;3091;51.506;7.672;2023-04-19T01:49:23;16.13;;;15.57;;
6121;SDS011;3091;51.506;7.672;2023-04-19T01:51:49;16.40;;;15.80;;
6121;SDS011;3091;51.506;7.672;2023-04-19T01:54:15;16.00;;;15.50;;
6121;SDS011;3091;51.506;7.672;2023-04-19T01:56:42;17.70;;;16.90;;
6121;SDS011;3091;51.506;7.672;2023-04-19T01:59:08;15.90;;;15.40;;
6121;SDS011;3091;51.506;7.672;2023-04-19T02:01:34;16.90;;;16.30;;
6121;SDS011;3091;51.506;7.672;2023-04-19T02:04:01;17.00;;;16.30;;
6121;SDS011;3091;51.506;7.672;2023-04-19T02:06:27;16.87;;;16.27;;
6121;SDS011;3091;51.506;7.672;2023-04-19T02:08:56;16.77;;;15.97;;
6121;SDS011;3091;51.506;7.672;2023-04-19T02:11:23;14.90;;;14.40;;
6121;SDS011;3091;51.506;7.672;2023-04-19T02:13:49;16.40;;;15.70;;
6121;SDS011;3091;51.506;7.672;2023-04-19T02:16:15;14.80;;;14.30;;
6121;SDS011;3091;51.506;7.672;2023-04-19T02:18:41;15.03;;;14.50;;
6121;SDS011;3091;51.506;7.672;2023-04-19T02:21:08;16.03;;;15.17;;
6121;SDS011;3091;51.506;7.672;2023-04-19T02:23:34;15.23;;;14.73;;
6121;SDS011;3091;51.506;7.672;2023-04-19T02:26:00;15.50;;;14.90;;
6121;SDS011;3091;51.506;7.672;2023-04-19T02:28:29;17.00;;;16.20;;
6121;SDS011;3091;51.506;7.672;2023-04-19T02:30:56;15.70;;;15.10;;
6121;SDS011;3091;51.506;7.672;2023-04-19T02:33:22;14.70;;;14.20;;
6121;SDS011;3091;51.506;7.672;2023-04-19T02:35:48;15.23;;;14.73;;
6121;SDS011;3091;51.506;7.672;2023-04-19T02:38:16;14.53;;;14.03;;
6121;SDS011;3091;51.506;7.672;2023-04-19T02:40:42;15.37;;;14.77;;
6121;SDS011;3091;51.506;7.672;2023-04-19T02:43:08;17.80;;;17.07;;
6121;SDS011;3091;51.506;7.672;2023-04-19T02:45:42;17.97;;;17.03;;
6121;SDS011;3091;51.506;7.672;2023-04-19T02:48:08;17.20;;;16.43;;
6121;SDS011;3091;51.506;7.672;2023-04-19T02:50:35;14.93;;;14.23;;
6121;SDS011;3091;51.506;7.672;2023-04-19T02:53:02;15.03;;;14.43;;
6121;SDS011;3091;51.506;7.672;2023-04-19T02:55:28;13.57;;;13.07;;
6121;SDS011;3091;51.506;7.672;2023-04-19T02:57:54;15.43;;;14.83;;
6121;SDS011;3091;51.506;7.672;2023-04-19T03:00:20;14.40;;;13.80;;
6121;SDS011;3091;51.506;7.672;2023-04-19T03:02:46;14.30;;;13.80;;
6121;SDS011;3091;51.506;7.672;2023-04-19T03:05:12;15.03;;;14.33;;
6121;SDS011;3091;51.506;7.672;2023-04-19T03:07:38;14.30;;;13.80;;
6121;SDS011;3091;51.506;7.672;2023-04-19T03:10:04;15.00;;;14.00;;
6121;SDS011;3091;51.506;7.672;2023-04-19T03:12:30;14.83;;;14.33;;
6121;SDS011;3091;51.506;7.672;2023-04-19T03:14:56;17.30;;;16.57;;
6121;SDS011;3091;51.506;7.672;2023-04-19T03:17:22;14.00;;;13.50;;
6121;SDS011;3091;51.506;7.672;2023-04-19T03:19:51;14.60;;;14.10;;
6121;SDS011;3091;51.506;7.672;2023-04-19T03:22:20;13.37;;;12.97;;
6121;SDS011;3091;51.506;7.672;2023-04-19T03:24:46;14.60;;;14.00;;
6121;SDS011;3091;51.506;7.672;2023-04-19T03:27:12;14.70;;;14.20;;
6121;SDS011;3091;51.506;7.672;2023-04-19T03:29:38;15.20;;;14.63;;
6121;SDS011;3091;51.506;7.672;2023-04-19T03:32:06;14.63;;;14.13;;
6121;SDS011;3091;51.506;7.672;2023-04-19T03:34:34;13.33;;;12.83;;
6121;SDS011;3091;51.506;7.672;2023-04-19T03:37:00;13.30;;;12.57;;
6121;SDS011;3091;51.506;7.672;2023-04-19T03:39:26;13.70;;;13.20;;
6121;SDS011;3091;51.506;7.672;2023-04-19T03:41:52;13.93;;;13.43;;
6121;SDS011;3091;51.506;7.672;2023-04-19T03:44:18;14.43;;;13.73;;
6121;SDS011;3091;51.506;7.672;2023-04-19T03:46:44;14.07;;;13.43;;
6121;SDS011;3091;51.506;7.672;2023-04-19T03:49:15;12.90;;;12.50;;
6121;SDS011;3091;51.506;7.672;2023-04-19T03:51:41;13.70;;;13.10;;
6121;SDS011;3091;51.506;7.672;2023-04-19T03:54:07;13.57;;;13.07;;
6121;SDS011;3091;51.506;7.672;2023-04-19T03:56:32;13.93;;;13.33;;
6121;SDS011;3091;51.506;7.672;2023-04-19T03:58:58;14.43;;;13.70;;
6121;SDS011;3091;51.506;7.672;2023-04-19T04:01:25;14.97;;;13.83;;
6121;SDS011;3091;51.506;7.672;2023-04-19T04:03:51;12.90;;;12.40;;
6121;SDS011;3091;51.506;7.672;2023-04-19T04:06:19;12.97;;;12.47;;
6121;SDS011;3091;51.506;7.672;2023-04-19T04:08:45;13.30;;;12.87;;
6121;SDS011;3091;51.506;7.672;2023-04-19T04:11:11;13.90;;;13.40;;
6121;SDS011;3091;51.506;7.672;2023-04-19T04:13:37;14.70;;;14.00;;
6121;SDS011;3091;51.506;7.672;2023-04-19T04:16:03;14.17;;;13.67;;
6121;SDS011;3091;51.506;7.672;2023-04-19T04:18:37;12.77;;;12.37;;
6121;SDS011;3091;51.506;7.672;2023-04-19T04:21:03;13.40;;;13.00;;
6121;SDS011;3091;51.506;7.672;2023-04-19T04:23:29;13.43;;;12.93;;
6121;SDS011;3091;51.506;7.672;2023-04-19T04:25:59;13.23;;;12.83;;
6121;SDS011;3091;51.506;7.672;2023-04-19T04:28:25;14.37;;;13.87;;
6121;SDS011;3091;51.506;7.672;2023-04-19T04:30:52;15.80;;;15.10;;
6121;SDS011;3091;51.506;7.672;2023-04-19T04:33:21;14.47;;;13.87;;
6121;SDS011;3091;51.506;7.672;2023-04-19T04:35:47;13.27;;;12.80;;
6121;SDS011;3091;51.506;7.672;2023-04-19T04:38:13;15.77;;;15.07;;
6121;SDS011;3091;51.506;7.672;2023-04-19T04:40:39;14.10;;;13.50;;
6121;SDS011;3091;51.506;7.672;2023-04-19T04:43:06;13.07;;;12.67;;
6121;SDS011;3091;51.506;7.672;2023-04-19T04:45:32;12.90;;;12.50;;
6121;SDS011;3091;51.506;7.672;2023-04-19T04:47:58;13.97;;;13.37;;
6121;SDS011;3091;51.506;7.672;2023-04-19T04:50:24;13.47;;;12.83;;
6121;SDS011;3091;51.506;7.672;2023-04-19T04:52:50;12.93;;;12.53;;
6121;SDS011;3091;51.506;7.672;2023-04-19T04:55:17;13.40;;;12.90;;
6121;SDS011;3091;51.506;7.672;2023-04-19T04:57:43;14.43;;;13.90;;
6121;SDS011;3091;51.506;7.672;2023-04-19T05:00:09;14.50;;;14.00;;
6121;SDS011;3091;51.506;7.672;2023-04-19T05:02:39;14.53;;;13.70;;
6121;SDS011;3091;51.506;7.672;2023-04-19T05:05:05;12.70;;;12.30;;
6121;SDS011;3091;51.506;7.672;2023-04-19T05:07:31;14.63;;;14.03;;
6121;SDS011;3091;51.506;7.672;2023-04-19T05:09:57;14.60;;;14.00;;
6121;SDS011;3091;51.506;7.672;2023-04-19T05:12:23;13.70;;;13.17;;
6121;SDS011;3091;51.506;7.672;2023-04-19T05:14:49;13.30;;;12.70;;
6121;SDS011;3091;51.506;7.672;2023-04-19T05:17:15;12.57;;;12.10;;
6121;SDS011;3091;51.506;7.672;2023-04-19T05:19:43;12.73;;;12.23;;
6121;SDS011;3091;51.506;7.672;2023-04-19T05:22:09;13.00;;;12.50;;
6121;SDS011;3091;51.506;7.672;2023-04-19T05:24:35;13.13;;;12.63;;
6121;SDS011;3091;51.506;7.672;2023-04-19T05:27:01;12.20;;;11.70;;
6121;SDS011;3091;51.506;7.672;2023-04-19T05:29:27;13.57;;;13.07;;
6121;SDS011;3091;51.506;7.672;2023-04-19T05:31:53;13.70;;;13.00;;
6121;SDS011;3091;51.506;7.672;2023-04-19T05:34:19;11.63;;;11.23;;
6121;SDS011;3091;51.506;7.672;2023-04-19T05:36:45;11.83;;;11.43;;
6121;SDS011;3091;51.506;7.672;2023-04-19T05:39:14;11.73;;;11.33;;
6121;SDS011;3091;51.506;7.672;2023-04-19T05:41:41;12.10;;;11.40;;
6121;SDS011;3091;51.506;7.672;2023-04-19T05:44:07;12.83;;;12.33;;
6121;SDS011;3091;51.506;7.672;2023-04-19T05:46:33;13.17;;;12.47;;
6121;SDS011;3091;51.506;7.672;2023-04-19T05:49:00;11.60;;;11.20;;
6121;SDS011;3091;51.506;7.672;2023-04-19T05:51:26;11.80;;;11.40;;
6121;SDS011;3091;51.506;7.672;2023-04-19T05:53:52;13.13;;;12.63;;
6121;SDS011;3091;51.506;7.672;2023-04-19T05:56:18;12.63;;;12.13;;
6121;SDS011;3091;51.506;7.672;2023-04-19T05:58:44;13.33;;;12.50;;
6121;SDS011;3091;51.506;7.672;2023-04-19T06:01:10;12.10;;;11.70;;
6121;SDS011;3091;51.506;7.672;2023-04-19T06:03:36;12.40;;;11.80;;
6121;SDS011;3091;51.506;7.672;2023-04-19T06:06:02;11.97;;;11.57;;
6121;SDS011;3091;51.506;7.672;2023-04-19T06:08:28;11.93;;;11.53;;
6121;SDS011;3091;51.506;7.672;2023-04-19T06:10:55;13.03;;;12.53;;
6121;SDS011;3091;51.506;7.672;2023-04-19T06:13:21;13.57;;;12.97;;
6121;SDS011;3091;51.506;7.672;2023-04-19T06:15:47;12.63;;;12.20;;
6121;SDS011;3091;51.506;7.672;2023-04-19T06:18:13;11.40;;;11.00;;
6121;SDS011;3091;51.506;7.672;2023-04-19T06:20:42;11.70;;;11.30;;
6121;SDS011;3091;51.506;7.672;2023-04-19T06:23:08;12.40;;;12.00;;
6121;SDS011;3091;51.506;7.672;2023-04-19T06:25:36;11.60;;;11.20;;
6121;SDS011;3091;51.506;7.672;2023-04-19T06:28:03;14.33;;;13.60;;
6121;SDS011;3091;51.506;7.672;2023-04-19T06:30:29;11.70;;;11.30;;
6121;SDS011;3091;51.506;7.672;2023-04-19T06:32:55;11.33;;;10.93;;
6121;SDS011;3091;51.506;7.672;2023-04-19T06:35:21;12.10;;;11.63;;
6121;SDS011;3091;51.506;7.672;2023-04-19T06:37:47;12.33;;;11.93;;
6121;SDS011;3091;51.506;7.672;2023-04-19T06:40:15;11.60;;;11.20;;
6121;SDS011;3091;51.506;7.672;2023-04-19T06:42:41;11.83;;;11.33;;
6121;SDS011;3091;51.506;7.672;2023-04-19T06:45:07;11.33;;;10.93;;
6121;SDS011;3091;51.506;7.672;2023-04-19T06:47:34;11.20;;;10.80;;
6121;SDS011;3091;51.506;7.672;2023-04-19T06:50:01;12.60;;;12.13;;
6121;SDS011;3091;51.506;7.672;2023-04-19T06:52:27;12.03;;;11.63;;
6121;SDS011;3091;51.506;7.672;2023-04-19T06:54:56;13.53;;;12.97;;
6121;SDS011;3091;51.506;7.672;2023-04-19T06:57:22;11.40;;;11.00;;
6121;SDS011;3091;51.506;7.672;2023-04-19T06:59:49;13.03;;;12.43;;
6121;SDS011;3091;51.506;7.672;2023-04-19T07:02:15;12.73;;;12.23;;
6121;SDS011;3091;51.506;7.672;2023-04-19T07:04:41;12.53;;;12.10;;
6121;SDS011;3091;51.506;7.672;2023-04-19T07:07:10;12.30;;;11.90;;
6121;SDS011;3091;51.506;7.672;2023-04-19T07:09:36;12.20;;;11.70;;
6121;SDS011;3091;51.506;7.672;2023-04-19T07:12:02;12.43;;;11.93;;
6121;SDS011;3091;51.506;7.672;2023-04-19T07:14:29;11.97;;;11.47;;
6121;SDS011;3091;51.506;7.672;2023-04-19T07:16:55;12.37;;;11.97;;
6121;SDS011;3091;51.506;7.672;2023-04-19T07:19:21;11.13;;;10.73;;
6121;SDS011;3091;51.506;7.672;2023-04-19T07:21:47;11.60;;;11.20;;
6121;SDS011;3091;51.506;7.672;2023-04-19T07:24:13;12.20;;;11.50;;
6121;SDS011;3091;51.506;7.672;2023-04-19T07:26:40;11.53;;;11.13;;
6121;SDS011;3091;51.506;7.672;2023-04-19T07:29:06;12.80;;;12.40;;
6121;SDS011;3091;51.506;7.672;2023-04-19T07:31:32;12.70;;;12.20;;
6121;SDS011;3091;51.506;7.672;2023-04-19T07:33:58;12.10;;;11.70;;
6121;SDS011;3091;51.506;7.672;2023-04-19T07:36:24;13.07;;;12.57;;
6121;SDS011;3091;51.506;7.672;2023-04-19T07:38:50;13.33;;;12.83;;
6121;SDS011;3091;51.506;7.672;2023-04-19T07:41:16;13.53;;;13.00;;
6121;SDS011;3091;51.506;7.672;2023-04-19T07:43:42;13.77;;;13.20;;
6121;SDS011;3091;51.506;7.672;2023-04-19T07:46:09;13.40;;;12.90;;
6121;SDS011;3091;51.506;7.672;2023-04-19T07:48:35;14.13;;;13.60;;
6121;SDS011;3091;51.506;7.672;2023-04-19T07:51:11;13.47;;;12.87;;
6121;SDS011;3091;51.506;7.672;2023-04-19T07:53:38;12.97;;;12.47;;
6121;SDS011;3091;51.506;7.672;2023-04-19T07:56:06;12.90;;;12.40;;
6121;SDS011;3091;51.506;7.672;2023-04-19T07:58:32;13.50;;;13.00;;
6121;SDS011;3091;51.506;7.672;2023-04-19T08:00:58;15.10;;;14.40;;
6121;SDS011;3091;51.506;7.672;2023-04-19T08:03:25;12.80;;;12.20;;
6121;SDS011;3091;51.506;7.672;2023-04-19T08:05:53;12.83;;;12.33;;
6121;SDS011;3091;51.506;7.672;2023-04-19T08:08:19;13.00;;;12.50;;
6121;SDS011;3091;51.506;7.672;2023-04-19T08:10:47;12.50;;;12.10;;
6121;SDS011;3091;51.506;7.672;2023-04-19T08:13:14;12.90;;;12.40;;
6121;SDS011;3091;51.506;7.672;2023-04-19T08:15:40;15.27;;;14.47;;
6121;SDS011;3091;51.506;7.672;2023-04-19T08:18:06;13.00;;;12.50;;
6121;SDS011;3091;51.506;7.672;2023-04-19T08:20:32;13.20;;;12.70;;
6121;SDS011;3091;51.506;7.672;2023-04-19T08:22:58;13.77;;;13.17;;
6121;SDS011;3091;51.506;7.672;2023-04-19T08:25:24;13.77;;;13.27;;
6121;SDS011;3091;51.506;7.672;2023-04-19T08:27:52;12.90;;;12.40;;
6121;SDS011;3091;51.506;7.672;2023-04-19T08:30:19;13.00;;;12.50;;
6121;SDS011;3091;51.506;7.672;2023-04-19T08:32:45;13.37;;;12.87;;
6121;SDS011;3091;51.506;7.672;2023-04-19T08:35:12;13.00;;;12.50;;
6121;SDS011;3091;51.506;7.672;2023-04-19T08:37:38;13.30;;;12.80;;
6121;SDS011;3091;51.506;7.672;2023-04-19T08:40:04;13.70;;;13.00;;
6121;SDS011;3091;51.506;7.672;2023-04-19T08:42:31;13.60;;;13.10;;
6121;SDS011;3091;51.506;7.672;2023-04-19T08:44:59;12.73;;;12.23;;
6121;SDS011;3091;51.506;7.672;2023-04-19T08:47:27;12.70;;;12.23;;
6121;SDS011;3091;51.506;7.672;2023-04-19T08:49:54;12.90;;;12.40;;
6121;SDS011;3091;51.506;7.672;2023-04-19T08:52:20;13.00;;;12.40;;
6121;SDS011;3091;51.506;7.672;2023-04-19T08:54:46;13.57;;;13.03;;
6121;SDS011;3091;51.506;7.672;2023-04-19T08:57:12;13.60;;;13.07;;
6121;SDS011;3091;51.506;7.672;2023-04-19T08:59:38;12.73;;;12.23;;
6121;SDS011;3091;51.506;7.672;2023-04-19T09:02:04;12.97;;;12.40;;
6121;SDS011;3091;51.506;7.672;2023-04-19T09:04:30;11.93;;;11.47;;
6121;SDS011;3091;51.506;7.672;2023-04-19T09:06:57;11.73;;;11.33;;
6121;SDS011;3091;51.506;7.672;2023-04-19T09:09:24;12.07;;;11.67;;
6121;SDS011;3091;51.506;7.672;2023-04-19T09:11:53;12.43;;;11.93;;
6121;SDS011;3091;51.506;7.672;2023-04-19T09:14:19;12.20;;;11.80;;
6121;SDS011;3091;51.506;7.672;2023-04-19T09:16:45;12.50;;;12.00;;
6121;SDS011;3091;51.506;7.672;2023-04-19T09:19:12;11.80;;;11.40;;
6121;SDS011;3091;51.506;7.672;2023-04-19T09:21:38;13.70;;;13.10;;
6121;SDS011;3091;51.506;7.672;2023-04-19T09:24:04;12.70;;;12.00;;
6121;SDS011;3091;51.506;7.672;2023-04-19T09:26:31;13.03;;;12.43;;
6121;SDS011;3091;51.506;7.672;2023-04-19T09:28:58;12.80;;;12.30;;
6121;SDS011;3091;51.506;7.672;2023-04-19T09:31:26;12.13;;;11.73;;
6121;SDS011;3091;51.506;7.672;2023-04-19T09:33:52;12.63;;;12.03;;
6121;SDS011;3091;51.506;7.672;2023-04-19T09:36:31;11.53;;;11.13;;
6121;SDS011;3091;51.506;7.672;2023-04-19T09:38:57;11.90;;;11.50;;
6121;SDS011;3091;51.506;7.672;2023-04-19T09:41:24;12.37;;;11.97;;
6121;SDS011;3091;51.506;7.672;2023-04-19T09:43:51;12.93;;;12.33;;
6121;SDS011;3091;51.506;7.672;2023-04-19T09:46:50;12.53;;;12.03;;
6121;SDS011;3091;51.506;7.672;2023-04-19T09:51:43;12.80;;;12.30;;
6121;SDS011;3091;51.506;7.672;2023-04-19T09:54:10;12.70;;;12.20;;
6121;SDS011;3091;51.506;7.672;2023-04-19T09:56:37;14.43;;;13.63;;
6121;SDS011;3091;51.506;7.672;2023-04-19T09:59:03;13.33;;;12.83;;
6121;SDS011;3091;51.506;7.672;2023-04-19T10:01:32;13.60;;;13.00;;
6121;SDS011;3091;51.506;7.672;2023-04-19T10:03:59;13.03;;;12.53;;
6121;SDS011;3091;51.506;7.672;2023-04-19T10:06:25;13.23;;;12.73;;
6121;SDS011;3091;51.506;7.672;2023-04-19T10:08:52;12.77;;;12.33;;
6121;SDS011;3091;51.506;7.672;2023-04-19T10:11:21;13.70;;;13.17;;
6121;SDS011;3091;51.506;7.672;2023-04-19T10:13:49;12.00;;;11.60;;
6121;SDS011;3091;51.506;7.672;2023-04-19T10:16:17;11.67;;;11.27;;
6121;SDS011;3091;51.506;7.672;2023-04-19T10:18:43;11.70;;;11.30;;
6121;SDS011;3091;51.506;7.672;2023-04-19T10:21:09;12.53;;;12.03;;
6121;SDS011;3091;51.506;7.672;2023-04-19T10:23:38;12.17;;;11.77;;
6121;SDS011;3091;51.506;7.672;2023-04-19T10:26:04;11.90;;;11.50;;
6121;SDS011;3091;51.506;7.672;2023-04-19T10:28:31;11.97;;;11.57;;
6121;SDS011;3091;51.506;7.672;2023-04-19T10:31:00;12.00;;;11.60;;
6121;SDS011;3091;51.506;7.672;2023-04-19T10:33:33;11.90;;;11.50;;
6121;SDS011;3091;51.506;7.672;2023-04-19T10:35:59;12.10;;;11.70;;
6121;SDS011;3091;51.506;7.672;2023-04-19T10:38:35;11.93;;;11.53;;
6121;SDS011;3091;51.506;7.672;2023-04-19T10:41:01;12.40;;;11.90;;
6121;SDS011;3091;51.506;7.672;2023-04-19T10:43:35;12.30;;;11.80;;
6121;SDS011;3091;51.506;7.672;2023-04-19T10:46:05;11.90;;;11.50;;
6121;SDS011;3091;51.506;7.672;2023-04-19T10:48:32;12.90;;;12.40;;
6121;SDS011;3091;51.506;7.672;2023-04-19T10:56:13;13.40;;;12.70;;
6121;SDS011;3091;51.506;7.672;2023-04-19T11:04:14;12.90;;;12.40;;
6121;SDS011;3091;51.506;7.672;2023-04-19T11:11:48;13.70;;;13.00;;
6121;SDS011;3091;51.506;7.672;2023-04-19T11:14:14;14.00;;;13.50;;
6121;SDS011;3091;51.506;7.672;2023-04-19T11:16:40;13.67;;;13.07;;
6121;SDS011;3091;51.506;7.672;2023-04-19T11:19:06;13.83;;;13.27;;
6121;SDS011;3091;51.506;7.672;2023-04-19T11:21:32;14.30;;;13.70;;
6121;SDS011;3091;51.506;7.672;2023-04-19T11:24:10;12.70;;;12.30;;
6121;SDS011;3091;51.506;7.672;2023-04-19T11:26:36;12.97;;;12.47;;
6121;SDS011;3091;51.506;7.672;2023-04-19T11:29:05;13.27;;;12.77;;
6121;SDS011;3091;51.506;7.672;2023-04-19T11:31:31;13.00;;;12.37;;
6121;SDS011;3091;51.506;7.672;2023-04-19T11:33:57;13.00;;;12.50;;
6121;SDS011;3091;51.506;7.672;2023-04-19T11:36:24;12.53;;;12.07;;
6121;SDS011;3091;51.506;7.672;2023-04-19T11:38:51;14.07;;;13.37;;
6121;SDS011;3091;51.506;7.672;2023-04-19T11:41:17;13.60;;;13.10;;
6121;SDS011;3091;51.506;7.672;2023-04-19T11:43:43;13.20;;;12.63;;
6121;SDS011;3091;51.506;7.672;2023-04-19T11:46:13;13.20;;;12.70;;
6121;SDS011;3091;51.506;7.672;2023-04-19T11:48:48;12.20;;;11.80;;
6121;SDS011;3091;51.506;7.672;2023-04-19T11:51:15;12.60;;;12.10;;
6121;SDS011;3091;51.506;7.672;2023-04-19T11:53:41;12.83;;;12.33;;
6121;SDS011;3091;51.506;7.672;2023-04-19T11:56:07;13.20;;;12.70;;
6121;SDS011;3091;51.506;7.672;2023-04-19T11:58:43;13.87;;;13.27;;
6121;SDS011;3091;51.506;7.672;2023-04-19T12:01:12;14.03;;;13.33;;
6121;SDS011;3091;51.506;7.672;2023-04-19T12:03:40;12.83;;;12.33;;
6121;SDS011;3091;51.506;7.672;2023-04-19T12:06:10;13.40;;;12.90;;
6121;SDS011;3091;51.506;7.672;2023-04-19T12:08:38;13.27;;;12.77;;
6121;SDS011;3091;51.506;7.672;2023-04-19T12:11:04;13.40;;;12.90;;
6121;SDS011;3091;51.506;7.672;2023-04-19T12:13:33;14.70;;;14.10;;
6121;SDS011;3091;51.506;7.672;2023-04-19T12:16:00;15.10;;;14.40;;
6121;SDS011;3091;51.506;7.672;2023-04-19T12:18:26;13.67;;;13.07;;
6121;SDS011;3091;51.506;7.672;2023-04-19T12:20:52;11.67;;;11.27;;
6121;SDS011;3091;51.506;7.672;2023-04-19T12:23:19;12.03;;;11.63;;
6121;SDS011;3091;51.506;7.672;2023-04-19T12:25:46;12.60;;;12.10;;
6121;SDS011;3091;51.506;7.672;2023-04-19T12:28:13;12.73;;;12.23;;
6121;SDS011;3091;51.506;7.672;2023-04-19T12:30:39;12.43;;;12.00;;
6121;SDS011;3091;51.506;7.672;2023-04-19T12:33:05;13.43;;;12.93;;
6121;SDS011;3091;51.506;7.672;2023-04-19T12:35:32;14.17;;;13.37;;
6121;SDS011;3091;51.506;7.672;2023-04-19T12:37:58;13.23;;;12.53;;
6121;SDS011;3091;51.506;7.672;2023-04-19T12:40:25;12.80;;;12.30;;
6121;SDS011;3091;51.506;7.672;2023-04-19T12:42:51;12.73;;;12.23;;
6121;SDS011;3091;51.506;7.672;2023-04-19T12:45:18;12.43;;;12.03;;
6121;SDS011;3091;51.506;7.672;2023-04-19T12:47:44;14.33;;;13.40;;
6121;SDS011;3091;51.506;7.672;2023-04-19T12:50:11;13.20;;;12.70;;
6121;SDS011;3091;51.506;7.672;2023-04-19T12:52:37;12.70;;;12.10;;
6121;SDS011;3091;51.506;7.672;2023-04-19T12:55:03;12.93;;;12.43;;
6121;SDS011;3091;51.506;7.672;2023-04-19T12:57:32;13.20;;;12.70;;
6121;SDS011;3091;51.506;7.672;2023-04-19T12:59:58;15.60;;;14.90;;
6121;SDS011;3091;51.506;7.672;2023-04-19T13:02:24;14.70;;;13.77;;
6121;SDS011;3091;51.506;7.672;2023-04-19T13:04:50;13.33;;;12.83;;
6121;SDS011;3091;51.506;7.672;2023-04-19T13:07:16;13.57;;;13.07;;
6121;SDS011;3091;51.506;7.672;2023-04-19T13:09:42;12.90;;;12.40;;
6121;SDS011;3091;51.506;7.672;2023-04-19T13:12:08;12.20;;;11.60;;
6121;SDS011;3091;51.506;7.672;2023-04-19T13:14:34;12.90;;;12.50;;
6121;SDS011;3091;51.506;7.672;2023-04-19T13:17:00;11.80;;;11.40;;
6121;SDS011;3091;51.506;7.672;2023-04-19T13:19:26;12.63;;;12.23;;
6121;SDS011;3091;51.506;7.672;2023-04-19T13:21:54;12.10;;;11.70;;
6121;SDS011;3091;51.506;7.672;2023-04-19T13:24:20;14.07;;;13.27;;
6121;SDS011;3091;51.506;7.672;2023-04-19T13:26:46;13.80;;;13.20;;
6121;SDS011;3091;51.506;7.672;2023-04-19T13:29:12;12.67;;;12.17;;
6121;SDS011;3091;51.506;7.672;2023-04-19T13:31:39;12.50;;;12.10;;
6121;SDS011;3091;51.506;7.672;2023-04-19T13:34:07;13.17;;;12.67;;
6121;SDS011;3091;51.506;7.672;2023-04-19T13:36:35;12.60;;;12.20;;
6121;SDS011;3091;51.506;7.672;2023-04-19T13:39:01;12.57;;;12.17;;
6121;SDS011;3091;51.506;7.672;2023-04-19T13:41:28;13.43;;;12.93;;
6121;SDS011;3091;51.506;7.672;2023-04-19T13:43:54;13.03;;;12.53;;
6121;SDS011;3091;51.506;7.672;2023-04-19T13:46:20;12.50;;;11.93;;
6121;SDS011;3091;51.506;7.672;2023-04-19T13:48:46;12.00;;;11.50;;
6121;SDS011;3091;51.506;7.672;2023-04-19T13:51:12;13.37;;;12.67;;
6121;SDS011;3091;51.506;7.672;2023-04-19T13:53:38;14.27;;;13.77;;
6121;SDS011;3091;51.506;7.672;2023-04-19T13:56:04;13.97;;;13.40;;
6121;SDS011;3091;51.506;7.672;2023-04-19T13:58:35;13.60;;;13.10;;
6121;SDS011;3091;51.506;7.672;2023-04-19T14:01:01;14.30;;;13.63;;
6121;SDS011;3091;51.506;7.672;2023-04-19T14:03:28;14.50;;;14.00;;
6121;SDS011;3091;51.506;7.672;2023-04-19T14:05:54;14.07;;;13.57;;
6121;SDS011;3091;51.506;7.672;2023-04-19T14:08:20;13.73;;;13.23;;
6121;SDS011;3091;51.506;7.672;2023-04-19T14:10:47;14.50;;;13.90;;
6121;SDS011;3091;51.506;7.672;2023-04-19T14:13:13;12.80;;;12.40;;
6121;SDS011;3091;51.506;7.672;2023-04-19T14:15:39;13.67;;;13.17;;
6121;SDS011;3091;51.506;7.672;2023-04-19T14:18:05;14.80;;;14.00;;
6121;SDS011;3091;51.506;7.672;2023-04-19T14:20:31;15.37;;;14.63;;
6121;SDS011;3091;51.506;7.672;2023-04-19T14:22:57;13.60;;;13.10;;
6121;SDS011;3091;51.506;7.672;2023-04-19T14:25:24;13.07;;;12.60;;
6121;SDS011;3091;51.506;7.672;2023-04-19T14:27:50;12.87;;;12.47;;
6121;SDS011;3091;51.506;7.672;2023-04-19T14:30:16;13.00;;;12.53;;
6121;SDS011;3091;51.506;7.672;2023-04-19T14:32:42;13.20;;;12.70;;
6121;SDS011;3091;51.506;7.672;2023-04-19T14:35:08;13.13;;;12.73;;
6121;SDS011;3091;51.506;7.672;2023-04-19T14:37:37;12.53;;;12.13;;
6121;SDS011;3091;51.506;7.672;2023-04-19T14:40:03;13.50;;;13.00;;
6121;SDS011;3091;51.506;7.672;2023-04-19T14:42:30;12.47;;;12.07;;
6121;SDS011;3091;51.506;7.672;2023-04-19T14:44:56;13.20;;;12.70;;
6121;SDS011;3091;51.506;7.672;2023-04-19T14:47:22;14.70;;;14.10;;
6121;SDS011;3091;51.506;7.672;2023-04-19T14:49:48;13.30;;;12.50;;
6121;SDS011;3091;51.506;7.672;2023-04-19T14:52:14;13.83;;;13.33;;
6121;SDS011;3091;51.506;7.672;2023-04-19T14:54:40;13.13;;;12.60;;
6121;SDS011;3091;51.506;7.672;2023-04-19T14:57:07;12.83;;;12.43;;
6121;SDS011;3091;51.506;7.672;2023-04-19T14:59:33;13.37;;;12.87;;
6121;SDS011;3091;51.506;7.672;2023-04-19T15:01:59;13.30;;;12.80;;
6121;SDS011;3091;51.506;7.672;2023-04-19T15:04:25;14.40;;;13.63;;